sensor_id;sensor_type;location;lat;lon;timestamp;temperature;humidity
6357;DHT22;3211;53.452;-2.264;2023-07-31T00:02:40;16.20;99.90
6357;DHT22;3211;53.452;-2.264;2023-07-31T00:05:22;16.20;99.90
6357;DHT22;3211;53.452;-2.264;2023-07-31T00:08:04;16.10;99.90
6357;DHT22;3211;53.452;-2.264;2023-07-31T00:10:51;16.20;99.90
6357;DHT22;3211;53.452;-2.264;2023-07-31T00:13:34;16.20;99.90
6357;DHT22;3211;53.452;-2.264;2023-07-31T00:16:16;16.20;99.90
6357;DHT22;3211;53.452;-2.264;2023-07-31T00:18:58;16.20;99.90
6357;DHT22;3211;53.452;-2.264;2023-07-31T00:21:40;16.20;99.90
6357;DHT22;3211;53.452;-2.264;2023-07-31T00:24:22;16.30;99.90
6357;DHT22;3211;53.452;-2.264;2023-07-31T00:27:06;16.30;99.90
6357;DHT22;3211;53.452;-2.264;2023-07-31T00:29:48;16.30;99.90
6357;DHT22;3211;53.452;-2.264;2023-07-31T00:32:30;16.30;99.90
6357;DHT22;3211;53.452;-2.264;2023-07-31T00:35:12;16.30;99.90
6357;DHT22;3211;53.452;-2.264;2023-07-31T00:37:57;16.30;99.90
6357;DHT22;3211;53.452;-2.264;2023-07-31T00:40:39;16.30;99.90
6357;DHT22;3211;53.452;-2.264;2023-07-31T00:43:24;16.30;99.90
6357;DHT22;3211;53.452;-2.264;2023-07-31T00:46:07;16.30;99.90
6357;DHT22;3211;53.452;-2.264;2023-07-31T00:48:49;16.30;99.90
6357;DHT22;3211;53.452;-2.264;2023-07-31T00:51:31;16.30;99.90
6357;DHT22;3211;53.452;-2.264;2023-07-31T00:54:13;16.30;99.90
6357;DHT22;3211;53.452;-2.264;2023-07-31T00:56:55;16.30;99.90
6357;DHT22;3211;53.452;-2.264;2023-07-31T00:59:39;16.30;99.90
6357;DHT22;3211;53.452;-2.264;2023-07-31T01:02:21;16.30;99.90
6357;DHT22;3211;53.452;-2.264;2023-07-31T01:05:04;16.30;99.90
6357;DHT22;3211;53.452;-2.264;2023-07-31T01:07:52;16.30;99.90
6357;DHT22;3211;53.452;-2.264;2023-07-31T01:10:48;16.30;99.90
6357;DHT22;3211;53.452;-2.264;2023-07-31T01:13:30;16.30;99.90
6357;DHT22;3211;53.452;-2.264;2023-07-31T01:16:14;16.30;99.90
6357;DHT22;3211;53.452;-2.264;2023-07-31T01:18:56;16.30;99.90
6357;DHT22;3211;53.452;-2.264;2023-07-31T01:21:56;16.30;99.90
6357;DHT22;3211;53.452;-2.264;2023-07-31T01:24:51;16.30;99.90
6357;DHT22;3211;53.452;-2.264;2023-07-31T01:27:43;16.30;99.90
6357;DHT22;3211;53.452;-2.264;2023-07-31T01:30:28;16.30;99.90
6357;DHT22;3211;53.452;-2.264;2023-07-31T01:33:16;16.30;99.90
6357;DHT22;3211;53.452;-2.264;2023-07-31T01:35:58;16.40;99.90
6357;DHT22;3211;53.452;-2.264;2023-07-31T01:38:41;16.40;99.90
6357;DHT22;3211;53.452;-2.264;2023-07-31T01:41:23;16.40;99.90
6357;DHT22;3211;53.452;-2.264;2023-07-31T01:44:06;16.40;99.90
6357;DHT22;3211;53.452;-2.264;2023-07-31T01:46:48;16.40;99.90
6357;DHT22;3211;53.452;-2.264;2023-07-31T01:49:30;16.40;99.90
6357;DHT22;3211;53.452;-2.264;2023-07-31T01:52:12;16.40;99.90
6357;DHT22;3211;53.452;-2.264;2023-07-31T01:54:54;16.40;99.90
6357;DHT22;3211;53.452;-2.264;2023-07-31T01:57:36;16.40;99.90
6357;DHT22;3211;53.452;-2.264;2023-07-31T02:00:20;16.40;99.90
6357;DHT22;3211;53.452;-2.264;2023-07-31T02:03:02;16.40;99.90
6357;DHT22;3211;53.452;-2.264;2023-07-31T02:05:45;16.50;99.90
6357;DHT22;3211;53.452;-2.264;2023-07-31T02:08:27;16.50;99.90
6357;DHT22;3211;53.452;-2.264;2023-07-31T02:11:09;16.50;99.90
6357;DHT22;3211;53.452;-2.264;2023-07-31T02:13:51;16.50;99.90
6357;DHT22;3211;53.452;-2.264;2023-07-31T02:16:34;16.50;99.90
6357;DHT22;3211;53.452;-2.264;2023-07-31T02:19:16;16.50;99.90
6357;DHT22;3211;53.452;-2.264;2023-07-31T02:21:58;16.50;99.90
6357;DHT22;3211;53.452;-2.264;2023-07-31T02:24:40;16.50;99.90
6357;DHT22;3211;53.452;-2.264;2023-07-31T02:27:22;16.50;99.90
6357;DHT22;3211;53.452;-2.264;2023-07-31T02:30:08;16.50;99.90
6357;DHT22;3211;53.452;-2.264;2023-07-31T02:32:52;16.50;99.90
6357;DHT22;3211;53.452;-2.264;2023-07-31T02:35:37;16.50;99.90
6357;DHT22;3211;53.452;-2.264;2023-07-31T02:38:22;16.50;99.90
6357;DHT22;3211;53.452;-2.264;2023-07-31T02:41:04;16.50;99.90
6357;DHT22;3211;53.452;-2.264;2023-07-31T02:43:46;16.60;99.90
6357;DHT22;3211;53.452;-2.264;2023-07-31T02:46:28;16.60;99.90
6357;DHT22;3211;53.452;-2.264;2023-07-31T02:49:11;16.60;99.90
6357;DHT22;3211;53.452;-2.264;2023-07-31T02:51:53;16.60;99.90
6357;DHT22;3211;53.452;-2.264;2023-07-31T02:54:35;16.50;99.90
6357;DHT22;3211;53.452;-2.264;2023-07-31T02:57:17;16.50;99.90
6357;DHT22;3211;53.452;-2.264;2023-07-31T02:59:59;16.50;99.90
6357;DHT22;3211;53.452;-2.264;2023-07-31T03:02:41;16.50;99.90
6357;DHT22;3211;53.452;-2.264;2023-07-31T03:05:24;16.50;99.90
6357;DHT22;3211;53.452;-2.264;2023-07-31T03:08:06;16.50;99.90
6357;DHT22;3211;53.452;-2.264;2023-07-31T03:10:48;16.50;99.90
6357;DHT22;3211;53.452;-2.264;2023-07-31T03:13:30;16.50;99.90
6357;DHT22;3211;53.452;-2.264;2023-07-31T03:16:12;16.50;99.90
6357;DHT22;3211;53.452;-2.264;2023-07-31T03:18:54;16.50;99.90
6357;DHT22;3211;53.452;-2.264;2023-07-31T03:21:37;16.50;99.90
6357;DHT22;3211;53.452;-2.264;2023-07-31T03:24:19;16.50;99.90
6357;DHT22;3211;53.452;-2.264;2023-07-31T03:27:01;16.60;99.90
6357;DHT22;3211;53.452;-2.264;2023-07-31T03:29:43;16.60;99.90
6357;DHT22;3211;53.452;-2.264;2023-07-31T03:32:25;16.60;99.90
6357;DHT22;3211;53.452;-2.264;2023-07-31T03:35:07;16.60;99.90
6357;DHT22;3211;53.452;-2.264;2023-07-31T03:37:51;16.60;99.90
6357;DHT22;3211;53.452;-2.264;2023-07-31T03:40:33;16.60;99.90
6357;DHT22;3211;53.452;-2.264;2023-07-31T03:43:15;16.50;99.90
6357;DHT22;3211;53.452;-2.264;2023-07-31T03:45:57;16.50;99.90
6357;DHT22;3211;53.452;-2.264;2023-07-31T03:48:39;16.50;99.90
6357;DHT22;3211;53.452;-2.264;2023-07-31T03:51:21;16.60;99.90
6357;DHT22;3211;53.452;-2.264;2023-07-31T03:54:04;16.60;99.90
6357;DHT22;3211;53.452;-2.264;2023-07-31T03:56:48;16.50;99.90
6357;DHT22;3211;53.452;-2.264;2023-07-31T03:59:30;16.60;99.90
6357;DHT22;3211;53.452;-2.264;2023-07-31T04:02:12;16.60;99.90
6357;DHT22;3211;53.452;-2.264;2023-07-31T04:04:54;16.60;99.90
6357;DHT22;3211;53.452;-2.264;2023-07-31T04:07:37;16.50;99.90
6357;DHT22;3211;53.452;-2.264;2023-07-31T04:10:20;16.50;99.90
6357;DHT22;3211;53.452;-2.264;2023-07-31T04:13:02;16.50;99.90
6357;DHT22;3211;53.452;-2.264;2023-07-31T04:15:48;16.60;99.90
6357;DHT22;3211;53.452;-2.264;2023-07-31T04:18:31;16.60;99.90
6357;DHT22;3211;53.452;-2.264;2023-07-31T04:21:13;16.60;99.90
6357;DHT22;3211;53.452;-2.264;2023-07-31T04:23:55;16.60;99.90
6357;DHT22;3211;53.452;-2.264;2023-07-31T04:26:40;16.60;99.90
6357;DHT22;3211;53.452;-2.264;2023-07-31T04:29:22;16.60;99.90
6357;DHT22;3211;53.452;-2.264;2023-07-31T04:32:05;16.60;99.90
6357;DHT22;3211;53.452;-2.264;2023-07-31T04:34:47;16.60;99.90
6357;DHT22;3211;53.452;-2.264;2023-07-31T04:37:28;16.60;99.90
6357;DHT22;3211;53.452;-2.264;2023-07-31T04:40:11;16.60;99.90
6357;DHT22;3211;53.452;-2.264;2023-07-31T04:42:54;16.60;99.90
6357;DHT22;3211;53.452;-2.264;2023-07-31T04:45:36;16.60;99.90
6357;DHT22;3211;53.452;-2.264;2023-07-31T04:48:18;16.60;99.90
6357;DHT22;3211;53.452;-2.264;2023-07-31T04:51:00;16.60;99.90
6357;DHT22;3211;53.452;-2.264;2023-07-31T04:53:42;16.60;99.90
6357;DHT22;3211;53.452;-2.264;2023-07-31T04:56:24;16.60;99.90
6357;DHT22;3211;53.452;-2.264;2023-07-31T04:59:07;16.60;99.90
6357;DHT22;3211;53.452;-2.264;2023-07-31T05:01:49;16.70;99.90
6357;DHT22;3211;53.452;-2.264;2023-07-31T05:04:31;16.70;99.90
6357;DHT22;3211;53.452;-2.264;2023-07-31T05:07:13;16.70;99.90
6357;DHT22;3211;53.452;-2.264;2023-07-31T05:09:54;16.70;99.90
6357;DHT22;3211;53.452;-2.264;2023-07-31T05:12:36;16.70;99.90
6357;DHT22;3211;53.452;-2.264;2023-07-31T05:15:20;16.60;99.90
6357;DHT22;3211;53.452;-2.264;2023-07-31T05:18:02;16.70;99.90
6357;DHT22;3211;53.452;-2.264;2023-07-31T05:20:43;16.70;99.90
6357;DHT22;3211;53.452;-2.264;2023-07-31T05:23:25;16.60;99.90
6357;DHT22;3211;53.452;-2.264;2023-07-31T05:26:07;16.60;99.90
6357;DHT22;3211;53.452;-2.264;2023-07-31T05:28:50;16.60;99.90
6357;DHT22;3211;53.452;-2.264;2023-07-31T05:31:33;16.70;99.90
6357;DHT22;3211;53.452;-2.264;2023-07-31T05:34:15;16.60;99.90
6357;DHT22;3211;53.452;-2.264;2023-07-31T05:36:57;16.60;99.90
6357;DHT22;3211;53.452;-2.264;2023-07-31T05:39:39;16.60;99.90
6357;DHT22;3211;53.452;-2.264;2023-07-31T05:42:21;16.60;99.90
6357;DHT22;3211;53.452;-2.264;2023-07-31T05:45:03;16.70;99.90
6357;DHT22;3211;53.452;-2.264;2023-07-31T05:47:47;16.70;99.90
6357;DHT22;3211;53.452;-2.264;2023-07-31T05:50:29;16.70;99.90
6357;DHT22;3211;53.452;-2.264;2023-07-31T05:53:11;16.70;99.90
6357;DHT22;3211;53.452;-2.264;2023-07-31T05:55:53;16.70;99.90
6357;DHT22;3211;53.452;-2.264;2023-07-31T05:58:35;16.80;99.90
6357;DHT22;3211;53.452;-2.264;2023-07-31T06:01:17;16.80;99.90
6357;DHT22;3211;53.452;-2.264;2023-07-31T06:04:00;16.90;99.90
6357;DHT22;3211;53.452;-2.264;2023-07-31T06:06:43;16.90;99.90
6357;DHT22;3211;53.452;-2.264;2023-07-31T06:09:25;16.80;99.90
6357;DHT22;3211;53.452;-2.264;2023-07-31T06:12:08;16.80;99.90
6357;DHT22;3211;53.452;-2.264;2023-07-31T06:14:50;16.80;99.90
6357;DHT22;3211;53.452;-2.264;2023-07-31T06:17:32;16.90;99.90
6357;DHT22;3211;53.452;-2.264;2023-07-31T06:20:15;16.80;99.90
6357;DHT22;3211;53.452;-2.264;2023-07-31T06:22:57;16.70;99.90
6357;DHT22;3211;53.452;-2.264;2023-07-31T06:25:39;16.80;99.90
6357;DHT22;3211;53.452;-2.264;2023-07-31T06:28:21;16.80;99.90
6357;DHT22;3211;53.452;-2.264;2023-07-31T06:31:03;16.80;99.90
6357;DHT22;3211;53.452;-2.264;2023-07-31T06:33:45;16.90;99.90
6357;DHT22;3211;53.452;-2.264;2023-07-31T06:36:28;16.90;99.90
6357;DHT22;3211;53.452;-2.264;2023-07-31T06:39:10;16.80;99.90
6357;DHT22;3211;53.452;-2.264;2023-07-31T06:41:52;16.80;99.90
6357;DHT22;3211;53.452;-2.264;2023-07-31T06:44:34;16.60;99.90
6357;DHT22;3211;53.452;-2.264;2023-07-31T06:47:16;16.70;99.90
6357;DHT22;3211;53.452;-2.264;2023-07-31T06:49:57;16.70;99.90
6357;DHT22;3211;53.452;-2.264;2023-07-31T06:52:41;16.60;99.90
6357;DHT22;3211;53.452;-2.264;2023-07-31T06:55:23;16.70;99.90
6357;DHT22;3211;53.452;-2.264;2023-07-31T06:58:05;16.70;99.90
6357;DHT22;3211;53.452;-2.264;2023-07-31T07:00:47;16.70;99.90
6357;DHT22;3211;53.452;-2.264;2023-07-31T07:03:30;16.60;99.90
6357;DHT22;3211;53.452;-2.264;2023-07-31T07:06:13;16.70;99.90
6357;DHT22;3211;53.452;-2.264;2023-07-31T07:08:56;16.70;99.90
6357;DHT22;3211;53.452;-2.264;2023-07-31T07:11:38;16.60;99.90
6357;DHT22;3211;53.452;-2.264;2023-07-31T07:14:20;16.70;99.90
6357;DHT22;3211;53.452;-2.264;2023-07-31T07:17:02;16.90;99.90
6357;DHT22;3211;53.452;-2.264;2023-07-31T07:19:44;16.90;99.90
6357;DHT22;3211;53.452;-2.264;2023-07-31T07:22:27;16.80;99.90
6357;DHT22;3211;53.452;-2.264;2023-07-31T07:25:10;16.70;99.90
6357;DHT22;3211;53.452;-2.264;2023-07-31T07:27:52;16.70;99.90
6357;DHT22;3211;53.452;-2.264;2023-07-31T07:30:34;16.70;99.90
6357;DHT22;3211;53.452;-2.264;2023-07-31T07:33:16;16.70;99.90
6357;DHT22;3211;53.452;-2.264;2023-07-31T07:36:00;16.60;99.90
6357;DHT22;3211;53.452;-2.264;2023-07-31T07:38:42;16.70;99.90
6357;DHT22;3211;53.452;-2.264;2023-07-31T07:41:25;16.70;99.90
6357;DHT22;3211;53.452;-2.264;2023-07-31T07:44:08;16.70;99.90
6357;DHT22;3211;53.452;-2.264;2023-07-31T07:46:50;16.70;99.90
6357;DHT22;3211;53.452;-2.264;2023-07-31T07:49:33;16.70;99.90
6357;DHT22;3211;53.452;-2.264;2023-07-31T07:52:15;16.70;99.90
6357;DHT22;3211;53.452;-2.264;2023-07-31T07:54:57;16.70;99.90
6357;DHT22;3211;53.452;-2.264;2023-07-31T07:57:42;16.90;99.90
6357;DHT22;3211;53.452;-2.264;2023-07-31T08:00:24;16.90;99.90
6357;DHT22;3211;53.452;-2.264;2023-07-31T08:03:06;17.10;99.90
6357;DHT22;3211;53.452;-2.264;2023-07-31T08:05:48;17.10;99.90
6357;DHT22;3211;53.452;-2.264;2023-07-31T08:08:30;17.30;99.90
6357;DHT22;3211;53.452;-2.264;2023-07-31T08:11:12;17.30;99.90
6357;DHT22;3211;53.452;-2.264;2023-07-31T08:13:55;17.20;99.90
6357;DHT22;3211;53.452;-2.264;2023-07-31T08:16:38;17.40;99.90
6357;DHT22;3211;53.452;-2.264;2023-07-31T08:19:20;17.50;99.90
6357;DHT22;3211;53.452;-2.264;2023-07-31T08:22:02;17.50;99.90
6357;DHT22;3211;53.452;-2.264;2023-07-31T08:24:44;17.40;99.90
6357;DHT22;3211;53.452;-2.264;2023-07-31T08:27:25;17.40;99.90
6357;DHT22;3211;53.452;-2.264;2023-07-31T08:30:11;17.40;99.90
6357;DHT22;3211;53.452;-2.264;2023-07-31T08:32:52;17.50;99.90
6357;DHT22;3211;53.452;-2.264;2023-07-31T08:35:43;17.50;99.90
6357;DHT22;3211;53.452;-2.264;2023-07-31T08:38:26;17.50;91.70
6357;DHT22;3211;53.452;-2.264;2023-07-31T08:41:07;17.50;97.10
6357;DHT22;3211;53.452;-2.264;2023-07-31T08:43:50;17.40;1.00
6357;DHT22;3211;53.452;-2.264;2023-07-31T08:46:34;17.50;1.00
6357;DHT22;3211;53.452;-2.264;2023-07-31T08:49:17;17.70;99.90
6357;DHT22;3211;53.452;-2.264;2023-07-31T08:51:59;17.60;1.00
6357;DHT22;3211;53.452;-2.264;2023-07-31T08:54:41;17.50;1.00
6357;DHT22;3211;53.452;-2.264;2023-07-31T08:57:23;17.60;1.00
6357;DHT22;3211;53.452;-2.264;2023-07-31T09:00:07;17.60;1.00
6357;DHT22;3211;53.452;-2.264;2023-07-31T09:02:56;17.50;54.00
6357;DHT22;3211;53.452;-2.264;2023-07-31T09:05:39;17.40;54.80
6357;DHT22;3211;53.452;-2.264;2023-07-31T09:08:24;17.20;1.00
6357;DHT22;3211;53.452;-2.264;2023-07-31T09:11:08;17.20;1.00
6357;DHT22;3211;53.452;-2.264;2023-07-31T09:13:50;17.20;58.10
6357;DHT22;3211;53.452;-2.264;2023-07-31T09:16:33;17.20;99.90
6357;DHT22;3211;53.452;-2.264;2023-07-31T09:19:25;17.10;49.60
6357;DHT22;3211;53.452;-2.264;2023-07-31T09:22:07;17.10;52.20
6357;DHT22;3211;53.452;-2.264;2023-07-31T09:24:49;17.20;99.90
6357;DHT22;3211;53.452;-2.264;2023-07-31T09:27:46;17.10;60.00
6357;DHT22;3211;53.452;-2.264;2023-07-31T09:30:28;17.10;99.90
6357;DHT22;3211;53.452;-2.264;2023-07-31T09:33:10;17.10;99.90
6357;DHT22;3211;53.452;-2.264;2023-07-31T09:35:53;17.10;99.90
6357;DHT22;3211;53.452;-2.264;2023-07-31T09:38:35;17.10;99.90
6357;DHT22;3211;53.452;-2.264;2023-07-31T09:41:17;17.10;99.90
6357;DHT22;3211;53.452;-2.264;2023-07-31T09:43:59;17.10;1.00
6357;DHT22;3211;53.452;-2.264;2023-07-31T09:46:41;17.10;1.00
6357;DHT22;3211;53.452;-2.264;2023-07-31T09:49:25;17.10;19.00
6357;DHT22;3211;53.452;-2.264;2023-07-31T09:52:13;17.10;2.70
6357;DHT22;3211;53.452;-2.264;2023-07-31T09:54:55;17.10;36.30
6357;DHT22;3211;53.452;-2.264;2023-07-31T09:57:39;17.20;1.00
6357;DHT22;3211;53.452;-2.264;2023-07-31T10:00:22;17.30;99.90
6357;DHT22;3211;53.452;-2.264;2023-07-31T10:03:08;17.30;99.90
6357;DHT22;3211;53.452;-2.264;2023-07-31T10:05:52;17.30;1.00
6357;DHT22;3211;53.452;-2.264;2023-07-31T10:08:36;17.30;1.00
6357;DHT22;3211;53.452;-2.264;2023-07-31T10:11:19;17.20;99.90
6357;DHT22;3211;53.452;-2.264;2023-07-31T10:14:02;17.30;99.90
6357;DHT22;3211;53.452;-2.264;2023-07-31T10:16:45;17.40;99.90
6357;DHT22;3211;53.452;-2.264;2023-07-31T10:19:27;17.40;99.90
6357;DHT22;3211;53.452;-2.264;2023-07-31T10:22:11;17.40;99.90
6357;DHT22;3211;53.452;-2.264;2023-07-31T10:24:58;17.30;99.90
6357;DHT22;3211;53.452;-2.264;2023-07-31T10:27:40;17.30;99.90
6357;DHT22;3211;53.452;-2.264;2023-07-31T10:30:24;17.20;99.90
6357;DHT22;3211;53.452;-2.264;2023-07-31T10:33:07;17.20;99.90
6357;DHT22;3211;53.452;-2.264;2023-07-31T10:35:49;17.30;99.90
6357;DHT22;3211;53.452;-2.264;2023-07-31T10:38:34;17.30;99.90
6357;DHT22;3211;53.452;-2.264;2023-07-31T10:41:17;17.40;99.90
6357;DHT22;3211;53.452;-2.264;2023-07-31T10:44:00;17.40;99.90
6357;DHT22;3211;53.452;-2.264;2023-07-31T10:46:42;17.40;99.90
6357;DHT22;3211;53.452;-2.264;2023-07-31T10:49:24;17.40;42.00
6357;DHT22;3211;53.452;-2.264;2023-07-31T10:52:10;17.40;99.90
6357;DHT22;3211;53.452;-2.264;2023-07-31T10:55:13;17.50;66.50
6357;DHT22;3211;53.452;-2.264;2023-07-31T10:57:58;17.60;17.30
6357;DHT22;3211;53.452;-2.264;2023-07-31T11:00:46;17.60;1.00
6357;DHT22;3211;53.452;-2.264;2023-07-31T11:03:41;17.70;1.00
6357;DHT22;3211;53.452;-2.264;2023-07-31T11:06:29;17.60;99.90
6357;DHT22;3211;53.452;-2.264;2023-07-31T11:09:13;17.60;99.90
6357;DHT22;3211;53.452;-2.264;2023-07-31T11:11:56;17.70;1.00
6357;DHT22;3211;53.452;-2.264;2023-07-31T11:14:39;17.60;99.90
6357;DHT22;3211;53.452;-2.264;2023-07-31T11:17:24;17.50;1.00
6357;DHT22;3211;53.452;-2.264;2023-07-31T11:20:07;17.50;1.00
6357;DHT22;3211;53.452;-2.264;2023-07-31T11:22:49;17.40;1.00
6357;DHT22;3211;53.452;-2.264;2023-07-31T11:25:32;17.50;1.00
6357;DHT22;3211;53.452;-2.264;2023-07-31T11:28:15;17.50;1.00
6357;DHT22;3211;53.452;-2.264;2023-07-31T11:30:58;17.50;99.90
6357;DHT22;3211;53.452;-2.264;2023-07-31T11:33:40;17.50;99.90
6357;DHT22;3211;53.452;-2.264;2023-07-31T11:36:22;17.40;99.90
6357;DHT22;3211;53.452;-2.264;2023-07-31T11:39:05;17.50;99.90
6357;DHT22;3211;53.452;-2.264;2023-07-31T11:41:47;17.50;99.90
6357;DHT22;3211;53.452;-2.264;2023-07-31T11:44:38;17.40;99.90
6357;DHT22;3211;53.452;-2.264;2023-07-31T11:47:21;17.30;99.90
6357;DHT22;3211;53.452;-2.264;2023-07-31T11:50:06;17.20;1.00
6357;DHT22;3211;53.452;-2.264;2023-07-31T11:52:53;17.20;1.00
6357;DHT22;3211;53.452;-2.264;2023-07-31T11:55:36;17.20;22.80
6357;DHT22;3211;53.452;-2.264;2023-07-31T11:58:19;17.20;45.50
6357;DHT22;3211;53.452;-2.264;2023-07-31T12:01:02;17.30;26.20
6357;DHT22;3211;53.452;-2.264;2023-07-31T12:03:46;17.30;1.00
6357;DHT22;3211;53.452;-2.264;2023-07-31T12:06:34;17.30;1.00
6357;DHT22;3211;53.452;-2.264;2023-07-31T12:09:16;17.30;1.00
6357;DHT22;3211;53.452;-2.264;2023-07-31T12:11:58;17.20;1.00
6357;DHT22;3211;53.452;-2.264;2023-07-31T12:14:42;17.20;1.00
6357;DHT22;3211;53.452;-2.264;2023-07-31T12:17:25;17.00;1.00
6357;DHT22;3211;53.452;-2.264;2023-07-31T12:20:09;17.10;1.00
6357;DHT22;3211;53.452;-2.264;2023-07-31T12:22:51;17.10;1.00
6357;DHT22;3211;53.452;-2.264;2023-07-31T12:25:33;17.10;1.00
6357;DHT22;3211;53.452;-2.264;2023-07-31T12:28:22;17.10;1.00
6357;DHT22;3211;53.452;-2.264;2023-07-31T12:31:05;17.10;1.00
6357;DHT22;3211;53.452;-2.264;2023-07-31T12:33:48;17.20;1.00
6357;DHT22;3211;53.452;-2.264;2023-07-31T12:36:32;17.20;1.00
6357;DHT22;3211;53.452;-2.264;2023-07-31T12:39:16;17.00;74.90
6357;DHT22;3211;53.452;-2.264;2023-07-31T12:41:58;17.10;99.90
6357;DHT22;3211;53.452;-2.264;2023-07-31T12:44:40;17.10;99.90
6357;DHT22;3211;53.452;-2.264;2023-07-31T12:47:22;17.10;99.90
6357;DHT22;3211;53.452;-2.264;2023-07-31T12:50:04;17.00;1.00
6357;DHT22;3211;53.452;-2.264;2023-07-31T12:52:48;17.00;90.70
6357;DHT22;3211;53.452;-2.264;2023-07-31T12:55:30;16.90;99.90
6357;DHT22;3211;53.452;-2.264;2023-07-31T12:58:12;16.90;99.90
6357;DHT22;3211;53.452;-2.264;2023-07-31T13:00:54;16.90;99.90
6357;DHT22;3211;53.452;-2.264;2023-07-31T13:03:36;16.90;99.90
6357;DHT22;3211;53.452;-2.264;2023-07-31T13:06:18;16.90;99.90
6357;DHT22;3211;53.452;-2.264;2023-07-31T13:09:01;16.90;99.90
6357;DHT22;3211;53.452;-2.264;2023-07-31T13:11:43;16.90;99.90
6357;DHT22;3211;53.452;-2.264;2023-07-31T13:14:25;16.90;99.90
6357;DHT22;3211;53.452;-2.264;2023-07-31T13:17:07;16.90;99.90
6357;DHT22;3211;53.452;-2.264;2023-07-31T13:19:48;17.00;99.90
6357;DHT22;3211;53.452;-2.264;2023-07-31T13:22:31;17.00;99.90
6357;DHT22;3211;53.452;-2.264;2023-07-31T13:25:14;16.90;99.90
6357;DHT22;3211;53.452;-2.264;2023-07-31T13:27:56;17.00;99.90
6357;DHT22;3211;53.452;-2.264;2023-07-31T13:30:38;16.90;99.90
6357;DHT22;3211;53.452;-2.264;2023-07-31T13:33:20;17.10;99.90
6357;DHT22;3211;53.452;-2.264;2023-07-31T13:36:02;17.10;99.90
6357;DHT22;3211;53.452;-2.264;2023-07-31T13:38:44;17.20;99.90
6357;DHT22;3211;53.452;-2.264;2023-07-31T13:41:27;17.30;99.90
6357;DHT22;3211;53.452;-2.264;2023-07-31T13:44:09;17.30;99.90
6357;DHT22;3211;53.452;-2.264;2023-07-31T13:46:51;17.10;99.90
6357;DHT22;3211;53.452;-2.264;2023-07-31T13:49:34;17.20;99.90
6357;DHT22;3211;53.452;-2.264;2023-07-31T13:52:16;17.10;99.90
6357;DHT22;3211;53.452;-2.264;2023-07-31T13:54:58;17.10;99.90
6357;DHT22;3211;53.452;-2.264;2023-07-31T13:57:41;17.10;99.90
6357;DHT22;3211;53.452;-2.264;2023-07-31T14:00:23;17.10;99.90
6357;DHT22;3211;53.452;-2.264;2023-07-31T14:03:05;17.10;99.90
6357;DHT22;3211;53.452;-2.264;2023-07-31T14:05:47;17.10;99.90
6357;DHT22;3211;53.452;-2.264;2023-07-31T14:08:29;17.10;99.90
6357;DHT22;3211;53.452;-2.264;2023-07-31T14:11:11;17.10;99.90
6357;DHT22;3211;53.452;-2.264;2023-07-31T14:13:55;17.00;99.90
6357;DHT22;3211;53.452;-2.264;2023-07-31T14:16:37;16.90;99.90
6357;DHT22;3211;53.452;-2.264;2023-07-31T14:19:19;17.00;99.90
6357;DHT22;3211;53.452;-2.264;2023-07-31T14:22:02;17.00;99.90
6357;DHT22;3211;53.452;-2.264;2023-07-31T14:24:44;16.10;99.90
6357;DHT22;3211;53.452;-2.264;2023-07-31T14:27:26;15.50;99.90
6357;DHT22;3211;53.452;-2.264;2023-07-31T14:30:09;15.40;99.90
6357;DHT22;3211;53.452;-2.264;2023-07-31T14:32:51;15.10;99.90
6357;DHT22;3211;53.452;-2.264;2023-07-31T14:35:34;15.00;99.90
6357;DHT22;3211;53.452;-2.264;2023-07-31T14:38:16;14.50;99.90
6357;DHT22;3211;53.452;-2.264;2023-07-31T14:40:58;14.30;99.90
6357;DHT22;3211;53.452;-2.264;2023-07-31T14:43:40;14.30;99.90
6357;DHT22;3211;53.452;-2.264;2023-07-31T14:46:23;14.40;99.90
6357;DHT22;3211;53.452;-2.264;2023-07-31T14:49:05;14.30;99.90
6357;DHT22;3211;53.452;-2.264;2023-07-31T14:51:47;14.40;99.90
6357;DHT22;3211;53.452;-2.264;2023-07-31T14:54:29;14.40;99.90
6357;DHT22;3211;53.452;-2.264;2023-07-31T14:57:11;14.50;99.90
6357;DHT22;3211;53.452;-2.264;2023-07-31T14:59:53;14.40;99.90
6357;DHT22;3211;53.452;-2.264;2023-07-31T15:02:36;14.50;99.90
6357;DHT22;3211;53.452;-2.264;2023-07-31T15:05:18;14.40;99.90
6357;DHT22;3211;53.452;-2.264;2023-07-31T15:08:00;14.50;99.90
6357;DHT22;3211;53.452;-2.264;2023-07-31T15:10:42;14.50;99.90
6357;DHT22;3211;53.452;-2.264;2023-07-31T15:13:24;14.60;99.90
6357;DHT22;3211;53.452;-2.264;2023-07-31T15:16:06;14.70;99.90
6357;DHT22;3211;53.452;-2.264;2023-07-31T15:18:49;14.80;99.90
6357;DHT22;3211;53.452;-2.264;2023-07-31T15:21:31;14.70;99.90
6357;DHT22;3211;53.452;-2.264;2023-07-31T15:24:13;14.80;99.90
6357;DHT22;3211;53.452;-2.264;2023-07-31T15:26:55;14.80;99.90
6357;DHT22;3211;53.452;-2.264;2023-07-31T15:29:37;14.80;99.90
6357;DHT22;3211;53.452;-2.264;2023-07-31T15:32:19;14.90;99.90
6357;DHT22;3211;53.452;-2.264;2023-07-31T15:35:05;15.10;99.90
6357;DHT22;3211;53.452;-2.264;2023-07-31T15:37:47;15.10;99.90
6357;DHT22;3211;53.452;-2.264;2023-07-31T15:40:29;15.30;99.90
6357;DHT22;3211;53.452;-2.264;2023-07-31T15:43:11;15.30;99.90
6357;DHT22;3211;53.452;-2.264;2023-07-31T15:45:53;15.20;99.90
6357;DHT22;3211;53.452;-2.264;2023-07-31T15:48:35;15.40;99.90
6357;DHT22;3211;53.452;-2.264;2023-07-31T15:51:18;15.40;99.90
6357;DHT22;3211;53.452;-2.264;2023-07-31T15:54:00;15.50;99.90
6357;DHT22;3211;53.452;-2.264;2023-07-31T15:56:42;15.50;99.90
6357;DHT22;3211;53.452;-2.264;2023-07-31T15:59:24;15.50;99.90
6357;DHT22;3211;53.452;-2.264;2023-07-31T16:02:07;15.50;99.90
6357;DHT22;3211;53.452;-2.264;2023-07-31T16:04:51;15.30;99.90
6357;DHT22;3211;53.452;-2.264;2023-07-31T16:07:36;15.50;99.90
6357;DHT22;3211;53.452;-2.264;2023-07-31T16:10:18;15.60;99.90
6357;DHT22;3211;53.452;-2.264;2023-07-31T16:13:00;15.50;99.90
6357;DHT22;3211;53.452;-2.264;2023-07-31T16:15:42;15.60;99.90
6357;DHT22;3211;53.452;-2.264;2023-07-31T16:18:24;15.60;99.90
6357;DHT22;3211;53.452;-2.264;2023-07-31T16:21:06;15.60;99.90
6357;DHT22;3211;53.452;-2.264;2023-07-31T16:23:49;15.80;99.90
6357;DHT22;3211;53.452;-2.264;2023-07-31T16:26:31;16.00;99.90
6357;DHT22;3211;53.452;-2.264;2023-07-31T16:29:14;16.20;99.90
6357;DHT22;3211;53.452;-2.264;2023-07-31T16:31:56;15.90;99.90
6357;DHT22;3211;53.452;-2.264;2023-07-31T16:34:37;15.90;99.90
6357;DHT22;3211;53.452;-2.264;2023-07-31T16:37:19;15.80;99.90
6357;DHT22;3211;53.452;-2.264;2023-07-31T16:40:03;16.00;99.90
6357;DHT22;3211;53.452;-2.264;2023-07-31T16:42:45;16.10;99.90
6357;DHT22;3211;53.452;-2.264;2023-07-31T16:45:27;16.10;99.90
6357;DHT22;3211;53.452;-2.264;2023-07-31T16:50:51;16.30;99.90
6357;DHT22;3211;53.452;-2.264;2023-07-31T16:53:33;16.20;99.90
6357;DHT22;3211;53.452;-2.264;2023-07-31T16:56:17;16.10;99.90
6357;DHT22;3211;53.452;-2.264;2023-07-31T16:58:59;16.00;99.90
6357;DHT22;3211;53.452;-2.264;2023-07-31T17:01:41;15.90;99.90
6357;DHT22;3211;53.452;-2.264;2023-07-31T17:04:23;16.00;99.90
6357;DHT22;3211;53.452;-2.264;2023-07-31T17:07:05;15.90;99.90
6357;DHT22;3211;53.452;-2.264;2023-07-31T17:09:47;16.00;99.90
6357;DHT22;3211;53.452;-2.264;2023-07-31T17:12:30;15.90;99.90
6357;DHT22;3211;53.452;-2.264;2023-07-31T17:15:12;15.90;99.90
6357;DHT22;3211;53.452;-2.264;2023-07-31T17:17:54;16.00;99.90
6357;DHT22;3211;53.452;-2.264;2023-07-31T17:20:36;15.90;99.90
6357;DHT22;3211;53.452;-2.264;2023-07-31T17:23:18;16.10;99.90
6357;DHT22;3211;53.452;-2.264;2023-07-31T17:26:00;16.10;99.90
6357;DHT22;3211;53.452;-2.264;2023-07-31T17:28:43;16.20;99.90
6357;DHT22;3211;53.452;-2.264;2023-07-31T17:31:25;16.30;99.90